Currently 56°F in Lake Elsinore, California, USA
56°F
57°F / 56°F
2 mph E
0.00"
Friday, April 27, 2018 1:21 AM PDT

Lake Elsinore, California Weather Summary
Last 36 Hours

Temperature Winds Hourly Humidity Dewpoint
Time Report Norm Report Norm Max Gusts Precip. Rpt. Norm Rpt. Norm Pressure
1,3Fri 01:21 AM  55.7°F  55°F  2 mph E  1 mph  6 mph  0.00"  78%  82%  49°F  49°F  30.03"
Fri 01:00 AM  56.0°F  55°F  2 mph E  1 mph  6 mph  0.00"  78%  82%  49°F  50°F  30.03"
2Fri 12:00 AM  57.0°F  57°F  2 mph E  1 mph  5 mph  0.00"  76%  80%  49°F  50°F  30.03"
Thu 11:00 PM  58.1°F  58°F  2 mph E  2 mph  7 mph  0.00"  75%  78%  50°F  51°F  30.03"
Thu 10:00 PM  59.3°F  60°F  3 mph E  2 mph  10 mph  0.00"  71%  74%  49°F  51°F  30.03"
Thu 09:00 PM  62.8°F  62°F  4 mph E  2 mph  9 mph  0.00"  62%  70%  49°F  51°F  30.01"
Thu 08:00 PM  68.0°F  64°F  4 mph SE  4 mph  8 mph  0.00"  52%  63%  49°F  51°F  29.99"
Thu 07:00 PM  74.8°F  69°F  3 mph SW  5 mph  12 mph  0.00"  37%  55%  46°F  51°F  29.96"
Thu 06:00 PM  80.4°F  73°F  1 mph S  6 mph  14 mph  0.00"  21%  48%  36°F  52°F  29.95"
Thu 05:00 PM  85.7°F  76°F  8 mph S  7 mph  15 mph  0.00"  21%  45%  40°F  52°F  29.95"
Thu 04:00 PM  87.9°F  78°F  calm  7 mph  12 mph  0.00"  18%  43%  37°F  52°F  29.95"
Thu 03:00 PM  85.9°F  78°F  calm  6 mph  7 mph  0.00"  19%  41%  37°F  52°F  29.97"
Thu 02:00 PM  83.5°F  78°F  5 mph E  5 mph  7 mph  0.00"  22%  41%  40°F  52°F  29.99"
Thu 01:00 PM  81.4°F  76°F  calm  4 mph  9 mph  0.00"  22%  42%  37°F  51°F  30.00"
Thu 12:00 PM  78.2°F  74°F  3 mph SE  3 mph  6 mph  0.00"  25%  46%  38°F  51°F  30.03"
Thu 11:00 AM  74.8°F  70°F  2 mph SE  3 mph  7 mph  0.00"  34%  52%  44°F  51°F  30.04"
Thu 10:00 AM  69.8°F  67°F  3 mph E  2 mph  6 mph  0.00"  41%  60%  44°F  52°F  30.04"
Thu 09:00 AM  66.2°F  62°F  1 mph SE  2 mph  5 mph  0.00"  49%  71%  46°F  52°F  30.04"
Thu 08:00 AM  60.6°F  57°F  1 mph SW  1 mph  4 mph  0.00"  61%  82%  47°F  51°F  30.05"
Thu 07:00 AM  53.6°F  52°F  calm  1 mph  3 mph  0.00"  73%  86%  45°F  48°F  30.04"
Thu 06:00 AM  54.0°F  52°F  calm  1 mph  none  0.00"  78%  86%  47°F  47°F  30.01"
Thu 05:00 AM  54.8°F  52°F  calm  1 mph  none  0.00"  72%  85%  45°F  48°F  30.00"
Thu 04:00 AM  55.6°F  53°F  calm  1 mph  none  0.00"  64%  85%  43°F  48°F  30.00"
Thu 03:00 AM  56.8°F  53°F  calm  1 mph  1 mph  0.00"  63%  84%  44°F  48°F  30.02"
Thu 02:00 AM  58.2°F  54°F  1 mph NW  1 mph  3 mph  0.00"  63%  82%  45°F  49°F  30.03"
Thu 01:00 AM  60.3°F  55°F  1 mph SE  1 mph  3 mph  0.00"  65%  82%  48°F  50°F  30.05"
Thu 12:00 AM  61.8°F  56°F  1 mph SE  1 mph  5 mph  0.00"  63%  80%  49°F  50°F  30.05"
Wed 11:00 PM  63.3°F  58°F  3 mph E  2 mph  5 mph  0.00"  59%  78%  48°F  51°F  30.06"
Wed 10:00 PM  65.1°F  59°F  calm  2 mph  7 mph  0.00"  54%  75%  48°F  51°F  30.05"
Wed 09:00 PM  68.2°F  61°F  3 mph SE  2 mph  9 mph  0.00"  49%  70%  47°F  51°F  30.05"
Wed 08:00 PM  72.6°F  64°F  2 mph W  3 mph  10 mph  0.00"  34%  64%  41°F  51°F  30.03"
Wed 07:00 PM  77.0°F  68°F  5 mph SW  5 mph  11 mph  0.00"  30%  56%  42°F  51°F  30.02"
Wed 06:00 PM  81.8°F  73°F  calm  6 mph  15 mph  0.00"  21%  50%  37°F  52°F  30.00"
Wed 05:00 PM  86.1°F  75°F  calm  7 mph  none  0.00"  20%  46%  39°F  52°F  30.01"
Wed 04:00 PM  88.0°F  77°F  calm  7 mph  17 mph  0.00"  18%  43%  37°F  52°F  29.99"
Wed 03:00 PM  89.6°F  78°F  calm  5 mph  none  0.00"  13%  41%  30°F  52°F  30.01"
Wed 02:00 PM  88.6°F  78°F  calm  5 mph  none  0.00"  12%  41%  28°F  52°F  30.03"

  1. Current weather data. No green row appears if the current weather data is also the high or low for the current day.
  2. High temperature for the current day.
  3. Low temperature for the current day.

The Lake Elsinore, California weather pages are a service of WeatherCurrents. Lake Elsinore is located south of Corona and north of the Temecula Valley, in southwestern Riverside County, California.
Copyright ©Fri Apr 27 01:21:34 PDT 2018  WeatherCurrents. All rights reserved. - Submit questions and comments - Privacy Policy

This page automatically refreshes every 10 minutes.